KGSO/GSO METAR and TAF weather

Enter ICAO airport designator
Station Type Date Time Source
KGSO METAR 2020/09/26 22:54 UTC NOAA

KGSO 262254Z 13003KT 10SM FEW035 FEW250 21/17 A3000 RMK AO2 SLP151 T02060172


Station Type Date Time Source
KGSO Decoded METAR 2020/09/26 22:54 UTC NOAA

PIEDMONT TRIAD INTERNATIONAL AIRPORT , NC, United States (KGSO) 36-06N 079-57W 275M
Sep 26, 2020 - 06:54 PM EDT / 2020.09.26 2254 UTC
Wind: from the SE (130 degrees) at 3 MPH (3 KT):0
Visibility: 10 mile(s):0
Sky conditions: mostly clear
Temperature: 69.1 F (20.6 C)
Dew Point: 63.0 F (17.2 C)
Relative Humidity: 80%
Pressure (altimeter): 30 in. Hg (1015 hPa)
ob: KGSO 262254Z 13003KT 10SM FEW035 FEW250 21/17 A3000 RMK AO2 SLP151 T02060172
cycle: 23

Station Type Date Time Source
KGSO TAF 2020/09/26 21:03 UTC NOAA

TAF
AMD KGSO 262101Z 2621/2718 VRB03KT P6SM BKN035
FM270800 00000KT 1SM BR BKN009
FM271500 21005KT 6SM BR SCT020 BKN035

Example: see airport list